Time;durP1;ratioP1;P1;durP2;ratioP2;P2;SDS_P1;SDS_P2;PMS_P1;PMS_P2;Temp;Humidity;BMP_temperature;BMP_pressure;BME280_temperature;BME280_humidity;BME280_pressure;Samples;Min_cycle;Max_cycle;Signal;HPM_P1;HPM_P2
2023/06/28 00:00:24;;;;;;;8.80;5.60;;;;;;;22.38;100.00;100998.44;2098566;28;20183;-65
2023/06/28 00:01:24;;;;;;;6.37;5.43;;;;;;;22.34;100.00;100997.13;2105355;28;20244;-65
2023/06/28 00:02:24;;;;;;;9.73;5.50;;;;;;;22.29;100.00;101000.69;2105483;28;20167;-64
2023/06/28 00:03:25;;;;;;;7.10;5.80;;;;;;;21.87;100.00;100932.94;2098454;28;20176;-65
2023/06/28 00:04:25;;;;;;;9.77;5.70;;;;;;;22.19;100.00;101002.16;2108250;28;20604;-65
2023/06/28 00:05:26;;;;;;;7.93;5.90;;;;;;;22.17;100.00;100996.25;2109168;28;20182;-64
2023/06/28 00:06:26;;;;;;;7.80;5.77;;;;;;;22.17;100.00;100996.25;2108439;28;20205;-64
2023/06/28 00:07:27;;;;;;;10.90;5.83;;;;;;;22.17;100.00;100999.84;2109398;28;20656;-64
2023/06/28 00:08:27;;;;;;;9.70;5.43;;;;;;;21.74;100.00;100952.34;2098105;28;20163;-65
2023/06/28 00:09:28;;;;;;;8.83;5.87;;;;;;;21.80;100.00;100964.44;2105791;28;20183;-65
2023/06/28 00:10:28;;;;;;;7.20;5.50;;;;;;;21.89;100.00;101004.50;2105479;28;20191;-64
2023/06/28 00:11:29;;;;;;;6.67;5.33;;;;;;;21.94;100.00;101006.59;2098748;28;20601;-64
2023/06/28 00:12:30;;;;;;;7.93;5.77;;;;;;;21.39;100.00;100929.94;2097118;28;20620;-64
2023/06/28 00:13:31;;;;;;;6.93;5.73;;;;;;;21.93;100.00;101007.88;2096937;28;20199;-64
2023/06/28 00:14:31;;;;;;;8.83;5.60;;;;;;;21.89;100.00;101012.97;2100539;28;20222;-64
2023/06/28 00:15:31;;;;;;;7.13;5.70;;;;;;;21.84;100.00;101016.53;2105531;28;20163;-65
2023/06/28 00:16:32;;;;;;;8.37;5.77;;;;;;;21.79;100.00;101010.81;2105115;28;20191;-64
2023/06/28 00:17:32;;;;;;;7.57;5.80;;;;;;;21.85;100.00;101020.88;2108928;28;20178;-64
2023/06/28 00:18:34;;;;;;;8.77;5.80;;;;;;;21.78;100.00;101029.03;2105969;28;20267;-65
2023/06/28 00:19:34;;;;;;;8.50;6.10;;;;;;;21.73;100.00;101030.53;2112318;28;20194;-64
2023/06/28 00:20:34;;;;;;;8.30;5.97;;;;;;;21.66;100.00;101021.72;2101749;28;20229;-64
2023/06/28 00:21:35;;;;;;;6.97;5.67;;;;;;;21.57;100.00;101014.22;2097356;28;20634;-64
2023/06/28 00:22:35;;;;;;;8.77;6.00;;;;;;;21.78;100.00;101034.66;2097149;28;20183;-64
2023/06/28 00:23:36;;;;;;;9.47;6.70;;;;;;;21.79;100.00;101034.16;2096965;28;20160;-65
2023/06/28 00:24:36;;;;;;;10.67;6.40;;;;;;;21.81;100.00;101039.31;2098622;28;20229;-65
2023/06/28 00:25:37;;;;;;;9.10;5.90;;;;;;;21.85;100.00;101031.41;2105023;28;20171;-64
2023/06/28 00:26:37;;;;;;;7.13;5.70;;;;;;;21.43;100.00;100969.19;2114138;28;20174;-65
2023/06/28 00:27:37;;;;;;;8.00;5.67;;;;;;;21.88;100.00;101034.00;2106686;28;20261;-65
2023/06/28 00:28:38;;;;;;;7.83;5.57;;;;;;;21.83;100.00;101033.94;2105531;28;20195;-64
2023/06/28 00:29:38;;;;;;;9.43;5.60;;;;;;;21.80;100.00;101037.78;2105356;28;20179;-65
2023/06/28 00:30:39;;;;;;;6.93;5.40;;;;;;;21.78;100.00;101034.66;2107676;28;20197;-64
2023/06/28 00:31:39;;;;;;;7.27;5.40;;;;;;;21.60;100.00;101015.25;2111436;28;20307;-64
2023/06/28 00:32:40;;;;;;;6.57;5.20;;;;;;;21.81;100.00;101028.78;2106105;28;20199;-64
2023/06/28 00:33:41;;;;;;;9.97;5.37;;;;;;;21.79;100.00;101042.63;2113920;28;20205;-64
2023/06/28 00:34:41;;;;;;;10.37;5.70;;;;;;;21.80;100.00;101035.72;2105806;28;20206;-64
2023/06/28 00:35:41;;;;;;;6.37;5.10;;;;;;;21.28;100.00;100958.03;2098279;28;20456;-64
2023/06/28 00:36:42;;;;;;;8.50;5.93;;;;;;;21.33;100.00;100971.41;2103018;28;20269;-64
2023/06/28 00:37:42;;;;;;;9.40;5.60;;;;;;;21.72;100.00;101036.66;2109469;28;20266;-64
2023/06/28 00:38:43;;;;;;;10.30;5.83;;;;;;;21.80;100.00;101038.53;2107652;28;20300;-64
2023/06/28 00:39:43;;;;;;;6.60;5.70;;;;;;;21.20;100.00;100961.81;2096858;28;20172;-64
2023/06/28 00:40:44;;;;;;;7.17;5.60;;;;;;;21.79;100.00;101041.84;2096902;28;20171;-64
2023/06/28 00:41:44;;;;;;;8.60;5.93;;;;;;;21.78;100.00;101041.09;2097815;28;20199;-64
2023/06/28 00:42:44;;;;;;;7.33;5.50;;;;;;;21.69;100.00;101027.16;2098590;28;20263;-65
2023/06/28 00:43:45;;;;;;;9.33;5.80;;;;;;;21.01;100.00;100933.19;2110758;28;20185;-64
2023/06/28 00:44:45;;;;;;;8.53;5.63;;;;;;;21.77;100.00;101045.19;2110490;27;20187;-64
2023/06/28 00:45:46;;;;;;;7.57;5.53;;;;;;;21.48;100.00;101000.28;2110060;28;20182;-65
2023/06/28 00:46:48;;;;;;;8.27;5.70;;;;;;;21.81;100.00;101051.38;2112973;28;20619;-64
2023/06/28 00:47:49;;;;;;;7.63;5.83;;;;;;;21.82;100.00;101054.97;2108458;28;20171;-64
2023/06/28 00:48:50;;;;;;;8.77;5.47;;;;;;;21.79;100.00;101041.84;2114500;27;20178;-65
2023/06/28 00:49:53;;;;;;;8.17;5.87;;;;;;;21.77;100.00;101056.47;2098949;28;20580;-64
2023/06/28 00:50:54;;;;;;;9.30;6.00;;;;;;;21.47;100.00;101007.19;2098279;28;20282;-64
2023/06/28 00:51:55;;;;;;;8.17;6.00;;;;;;;21.77;100.00;101048.00;2112652;28;20177;-64
2023/06/28 00:52:56;;;;;;;6.27;5.43;;;;;;;21.73;100.00;101057.97;2114279;28;20197;-64
2023/06/28 00:53:58;;;;;;;9.63;6.13;;;;;;;21.74;100.00;101065.16;2106134;28;20719;-64
2023/06/28 00:54:59;;;;;;;10.13;5.63;;;;;;;21.62;100.00;101041.69;2101976;28;20191;-65
2023/06/28 00:56:00;;;;;;;9.70;5.63;;;;;;;21.74;100.00;101062.34;2104071;28;20179;-64
2023/06/28 00:57:01;;;;;;;7.47;5.13;;;;;;;21.45;100.00;101003.31;2098514;28;20496;-64
2023/06/28 00:58:01;;;;;;;8.47;6.00;;;;;;;21.67;100.00;101057.88;2098551;28;20296;-64
2023/06/28 00:59:02;;;;;;;8.00;5.67;;;;;;;21.69;100.00;101072.28;2098098;28;20259;-65
2023/06/28 01:00:08;;;;;;;10.07;5.70;;;;;;;21.71;100.00;101057.69;2111955;28;20189;-64
2023/06/28 01:01:08;;;;;;;9.67;5.63;;;;;;;21.40;100.00;101032.97;2108729;28;20515;-65
2023/06/28 01:02:10;;;;;;;7.57;5.37;;;;;;;21.59;100.00;101056.78;2100057;28;20986;-64
2023/06/28 01:03:10;;;;;;;9.13;5.53;;;;;;;21.57;100.00;101050.09;2102442;28;20191;-64
2023/06/28 01:04:13;;;;;;;9.13;5.63;;;;;;;21.58;100.00;101065.72;2106652;28;20444;-64
2023/06/28 01:05:15;;;;;;;9.90;5.93;;;;;;;21.55;100.00;101061.09;2106768;28;20644;-64
2023/06/28 01:06:18;;;;;;;8.53;6.00;;;;;;;21.47;100.00;101057.94;2105237;28;20417;-64
2023/06/28 01:07:19;;;;;;;10.87;5.40;;;;;;;21.49;100.00;101074.38;2098419;28;20426;-64
2023/06/28 01:08:20;;;;;;;11.40;6.37;;;;;;;21.41;100.00;101053.50;2098806;28;20923;-64
2023/06/28 01:09:22;;;;;;;6.83;4.97;;;;;;;21.52;100.00;101074.16;2106506;28;20868;-64
2023/06/28 01:10:22;;;;;;;8.10;5.67;;;;;;;21.21;100.00;101023.31;2099783;28;20191;-65
2023/06/28 01:11:24;;;;;;;9.40;5.53;;;;;;;21.35;100.00;101055.50;2098512;28;20414;-64
2023/06/28 01:12:25;;;;;;;7.90;5.40;;;;;;;21.29;100.00;101043.41;2098390;28;20226;-64
2023/06/28 01:13:26;;;;;;;7.40;5.03;;;;;;;21.50;100.00;101061.81;2098541;28;20468;-65
2023/06/28 01:14:27;;;;;;;7.47;5.30;;;;;;;21.49;100.00;101063.09;2103203;28;20457;-65
2023/06/28 01:15:27;;;;;;;7.43;5.53;;;;;;;21.54;100.00;101068.00;2112406;28;20170;-64
2023/06/28 01:16:29;;;;;;;6.20;5.10;;;;;;;21.64;100.00;101072.22;2098139;28;20432;-64
2023/06/28 01:17:29;;;;;;;7.03;5.03;;;;;;;21.45;100.00;101059.72;2115677;28;20261;-64
2023/06/28 01:18:33;;;;;;;6.77;5.37;;;;;;;21.08;100.00;101006.00;2107547;28;20425;-66
2023/06/28 01:19:36;;;;;;;8.40;5.57;;;;;;;21.63;100.00;101076.28;2100104;28;20751;-64
2023/06/28 01:20:37;;;;;;;7.53;5.37;;;;;;;21.65;100.00;101079.41;2104410;28;20440;-65
2023/06/28 01:21:41;;;;;;;6.60;5.50;;;;;;;21.68;100.00;101079.22;2106739;28;20440;-65
2023/06/28 01:22:50;;;;;;;9.40;5.17;;;;;;;21.72;100.00;101074.13;2106514;28;20447;-64
2023/06/28 01:23:51;;;;;;;7.37;5.30;;;;;;;21.73;100.00;101075.66;2106097;28;20954;-64
2023/06/28 01:24:52;;;;;;;5.50;4.90;;;;;;;21.76;100.00;101073.91;2108837;28;20831;-65
2023/06/28 01:25:54;;;;;;;6.87;5.10;;;;;;;21.34;100.00;101011.66;2111440;28;20261;-64
2023/06/28 01:26:58;;;;;;;6.80;5.83;;;;;;;21.78;100.00;101079.81;2099230;28;20414;-64
2023/06/28 01:27:58;;;;;;;6.80;4.70;;;;;;;21.39;100.00;101020.16;2106544;28;20808;-64
2023/06/28 01:28:59;;;;;;;6.23;5.60;;;;;;;21.72;100.00;101060.03;2106597;28;20432;-65
2023/06/28 01:29:59;;;;;;;12.63;5.10;;;;;;;21.86;100.00;101078.84;2106509;28;20570;-65
2023/06/28 01:31:00;;;;;;;8.87;5.43;;;;;;;21.88;100.00;101079.16;2106111;28;20218;-64
2023/06/28 01:32:03;;;;;;;7.50;4.83;;;;;;;21.90;100.00;101070.19;2105982;28;20616;-64
2023/06/28 01:33:04;;;;;;;8.47;5.23;;;;;;;21.92;100.00;101079.69;2101897;28;20195;-64
2023/06/28 01:34:04;;;;;;;6.77;4.73;;;;;;;21.30;100.00;100969.59;2097793;28;20472;-64
2023/06/28 01:35:05;;;;;;;6.90;4.90;;;;;;;21.86;100.00;101059.09;2098387;28;20670;-64
2023/06/28 01:36:06;;;;;;;8.50;5.00;;;;;;;22.00;100.00;101072.31;2098190;28;20178;-64
2023/06/28 01:37:06;;;;;;;7.50;5.00;;;;;;;22.03;100.00;101076.97;2098268;28;20421;-64
2023/06/28 01:38:09;;;;;;;7.10;4.60;;;;;;;22.05;100.00;101071.59;2097926;28;20198;-64
2023/06/28 01:39:10;;;;;;;8.03;4.40;;;;;;;22.00;100.00;101068.75;2104728;28;20702;-65
2023/06/28 01:40:13;;;;;;;7.13;4.40;;;;;;;21.94;100.00;101073.53;2099924;28;20977;-65
2023/06/28 01:41:14;;;;;;;9.03;4.63;;;;;;;22.01;100.00;101064.63;2102985;28;20441;-64
2023/06/28 01:42:16;;;;;;;5.80;4.07;;;;;;;21.28;100.00;100957.28;2102475;28;20224;-64
2023/06/28 01:43:16;;;;;;;7.97;4.40;;;;;;;21.98;100.00;101066.41;2101053;28;20451;-65
2023/06/28 01:44:17;;;;;;;10.40;4.73;;;;;;;22.04;100.00;101060.78;2106166;28;20660;-64
2023/06/28 01:45:17;;;;;;;7.23;4.53;;;;;;;21.98;100.00;101040.22;2106522;28;20254;-65
2023/06/28 01:46:18;;;;;;;6.63;4.00;;;;;;;22.13;100.00;101066.25;2106829;28;20211;-65
2023/06/28 01:47:19;;;;;;;8.97;4.10;;;;;;;22.16;100.00;101068.09;2106270;28;20566;-65
2023/06/28 01:48:19;;;;;;;7.03;3.97;;;;;;;22.19;100.00;101064.25;2099917;28;20204;-63
2023/06/28 01:49:20;;;;;;;7.37;4.57;;;;;;;22.14;100.00;101064.97;2108678;28;20557;-64
2023/06/28 01:50:20;;;;;;;4.67;3.30;;;;;;;22.16;100.00;101059.63;2110846;28;20178;-65
2023/06/28 01:51:21;;;;;;;7.10;3.90;;;;;;;22.20;100.00;101066.59;2102511;28;20191;-64
2023/06/28 01:52:21;;;;;;;5.60;3.50;;;;;;;22.10;100.00;101058.81;2096964;28;20176;-64
2023/06/28 01:53:22;;;;;;;11.33;3.63;;;;;;;22.12;100.00;101065.50;2098170;28;20178;-65
2023/06/28 01:54:22;;;;;;;6.73;3.90;;;;;;;22.19;100.00;101061.44;2115195;28;20174;-65
2023/06/28 01:55:23;;;;;;;7.30;3.90;;;;;;;22.21;100.00;101064.53;2107540;28;20182;-65
2023/06/28 01:56:23;;;;;;;4.80;3.37;;;;;;;21.98;100.00;101020.47;2099805;28;20212;-64
2023/06/28 01:57:23;;;;;;;7.60;3.43;;;;;;;21.99;100.00;101033.31;2097796;28;20225;-64
2023/06/28 01:58:24;;;;;;;6.20;3.30;;;;;;;22.00;100.00;101038.44;2105068;28;20182;-64
2023/06/28 01:59:24;;;;;;;7.00;3.30;;;;;;;22.13;100.00;101064.22;2114716;27;20193;-64
2023/06/28 02:00:25;;;;;;;5.50;3.40;;;;;;;22.17;100.00;101073.25;2113647;28;20193;-65
2023/06/28 02:01:25;;;;;;;6.83;3.37;;;;;;;22.16;100.00;101059.63;2106817;28;20175;-64
2023/06/28 02:02:26;;;;;;;4.03;3.07;;;;;;;21.77;100.00;101013.38;2106478;28;20214;-64
2023/06/28 02:03:26;;;;;;;5.83;3.33;;;;;;;21.94;100.00;101034.03;2099343;28;20184;-64
2023/06/28 02:04:27;;;;;;;5.90;3.47;;;;;;;22.16;100.00;101070.91;2108310;28;20192;-64
2023/06/28 02:05:27;;;;;;;6.40;3.03;;;;;;;22.01;100.00;101054.09;2110708;28;20187;-65
2023/06/28 02:06:28;;;;;;;6.53;3.50;;;;;;;22.12;100.00;101065.50;2106409;28;20183;-64
2023/06/28 02:07:29;;;;;;;6.83;3.20;;;;;;;22.03;100.00;101051.56;2104586;28;20648;-65
2023/06/28 02:08:29;;;;;;;5.17;2.67;;;;;;;22.07;100.00;101062.63;2098467;28;20183;-64
2023/06/28 02:09:30;;;;;;;5.93;3.20;;;;;;;22.07;100.00;101069.06;2115089;28;20166;-65
2023/06/28 02:10:30;;;;;;;4.47;3.00;;;;;;;21.79;100.00;101016.47;2107427;28;20263;-64
2023/06/28 02:11:31;;;;;;;5.33;3.17;;;;;;;22.15;100.00;101070.13;2099420;28;20214;-65
2023/06/28 02:12:31;;;;;;;4.63;3.00;;;;;;;22.21;100.00;101068.13;2097686;28;20183;-65
2023/06/28 02:13:31;;;;;;;5.43;3.23;;;;;;;22.16;100.00;101073.75;2105004;28;20287;-64
2023/06/28 02:14:32;;;;;;;6.13;2.90;;;;;;;22.19;100.00;101067.88;2111131;28;20203;-64
2023/06/28 02:15:32;;;;;;;6.00;2.97;;;;;;;22.14;100.00;101056.50;2106479;28;20167;-65
2023/06/28 02:16:33;;;;;;;4.17;2.60;;;;;;;22.18;100.00;101060.69;2106151;28;20524;-64
2023/06/28 02:17:35;;;;;;;4.13;2.87;;;;;;;22.17;100.00;101061.97;2115011;28;20174;-64
2023/06/28 02:18:36;;;;;;;3.97;2.90;;;;;;;22.16;100.00;101059.63;2099018;28;20223;-64
2023/06/28 02:19:36;;;;;;;5.77;2.57;;;;;;;21.86;100.00;101013.97;2097921;28;20188;-64
2023/06/28 02:20:37;;;;;;;5.23;2.77;;;;;;;22.16;100.00;101065.28;2103419;28;20206;-64
2023/06/28 02:21:39;;;;;;;5.13;2.63;;;;;;;22.18;100.00;101071.97;2101534;28;20191;-65
2023/06/28 02:22:40;;;;;;;3.77;2.80;;;;;;;22.17;100.00;101078.09;2101194;28;20183;-65
2023/06/28 02:23:40;;;;;;;4.03;2.70;;;;;;;22.20;100.00;101071.44;2108026;28;20167;-65
2023/06/28 02:24:42;;;;;;;3.93;2.80;;;;;;;22.13;100.00;101074.72;2112893;28;20555;-64
2023/06/28 02:25:42;;;;;;;5.17;2.70;;;;;;;21.79;100.00;101030.56;2098046;28;20246;-65
2023/06/28 02:26:42;;;;;;;5.97;2.70;;;;;;;22.13;100.00;101077.56;2097629;28;20202;-65
2023/06/28 02:27:43;;;;;;;5.13;2.80;;;;;;;22.11;100.00;101082.94;2097926;28;20710;-65
2023/06/28 02:28:43;;;;;;;5.70;2.83;;;;;;;20.98;100.00;100905.22;2102869;28;20191;-65
2023/06/28 02:29:44;;;;;;;6.73;2.80;;;;;;;22.16;100.00;101077.31;2110041;28;20231;-64
2023/06/28 02:30:44;;;;;;;8.00;2.73;;;;;;;22.16;100.00;101088.63;2108018;28;20271;-64
2023/06/28 02:31:45;;;;;;;7.53;2.87;;;;;;;21.91;100.00;101066.84;2099806;28;20705;-64
2023/06/28 02:32:45;;;;;;;6.00;2.90;;;;;;;22.05;100.00;101084.94;2098046;28;20257;-65
2023/06/28 02:33:45;;;;;;;8.57;2.87;;;;;;;21.71;100.00;101035.13;2097824;28;20199;-64
2023/06/28 02:34:46;;;;;;;6.10;2.63;;;;;;;21.84;100.00;101061.66;2097067;28;20565;-64
2023/06/28 02:35:46;;;;;;;5.03;2.83;;;;;;;22.02;100.00;101092.38;2103874;28;20630;-64
2023/06/28 02:36:47;;;;;;;6.93;2.93;;;;;;;21.58;100.00;101029.84;2110978;28;20284;-64
2023/06/28 02:37:47;;;;;;;3.70;2.80;;;;;;;22.07;100.00;101088.81;2110930;28;20186;-64
2023/06/28 02:38:47;;;;;;;3.43;2.50;;;;;;;22.06;100.00;101092.13;2107972;28;20182;-65
2023/06/28 02:39:48;;;;;;;4.23;2.67;;;;;;;22.07;100.00;101099.31;2111873;28;20225;-65
2023/06/28 02:40:48;;;;;;;6.23;2.63;;;;;;;21.58;100.00;101020.59;2097863;28;20232;-65
2023/06/28 02:41:49;;;;;;;7.13;2.47;;;;;;;21.76;100.00;101040.84;2097810;28;20560;-65
2023/06/28 02:42:49;;;;;;;6.03;2.83;;;;;;;22.06;100.00;101094.97;2097433;28;20195;-65
2023/06/28 02:43:49;;;;;;;6.87;2.50;;;;;;;22.09;100.00;101096.75;2097098;28;20844;-64
2023/06/28 02:44:50;;;;;;;4.50;2.33;;;;;;;22.08;100.00;101089.56;2101599;28;20315;-65
2023/06/28 02:45:50;;;;;;;5.80;3.03;;;;;;;22.05;100.00;101087.78;2105995;28;20187;-65
2023/06/28 02:46:51;;;;;;;4.73;2.43;;;;;;;22.09;100.00;101097.53;2108327;28;20178;-64
2023/06/28 02:47:51;;;;;;;5.07;2.60;;;;;;;22.09;100.00;101091.91;2113378;28;20186;-65
2023/06/28 02:48:51;;;;;;;8.10;2.73;;;;;;;21.69;100.00;101044.09;2106392;28;20182;-64
2023/06/28 02:49:52;;;;;;;5.73;3.20;;;;;;;22.01;100.00;101099.25;2106216;28;20191;-65
2023/06/28 02:50:53;;;;;;;7.50;3.10;;;;;;;22.03;100.00;101096.72;2106150;28;20282;-64
2023/06/28 02:51:53;;;;;;;11.07;2.87;;;;;;;22.05;100.00;101099.06;2110742;28;20376;-64
2023/06/28 02:52:53;;;;;;;4.67;2.17;;;;;;;21.96;100.00;101099.97;2104296;28;20634;-64
2023/06/28 02:53:54;;;;;;;8.43;2.67;;;;;;;21.97;100.00;101095.91;2097162;28;20632;-64
2023/06/28 02:54:54;;;;;;;3.97;2.40;;;;;;;21.95;100.00;101092.78;2099696;28;20207;-64
2023/06/28 02:55:55;;;;;;;3.50;2.43;;;;;;;21.94;100.00;101099.72;2106041;28;20251;-64
2023/06/28 02:56:55;;;;;;;4.20;2.23;;;;;;;21.94;100.00;101096.13;2106223;28;20175;-64
2023/06/28 02:57:55;;;;;;;3.03;1.83;;;;;;;21.75;100.00;101069.53;2114238;28;20182;-64
2023/06/28 02:58:56;;;;;;;5.50;2.33;;;;;;;21.95;100.00;101094.88;2107088;28;20190;-65
2023/06/28 02:59:56;;;;;;;6.23;2.40;;;;;;;21.88;100.00;101100.94;2110728;28;20186;-65
2023/06/28 03:00:57;;;;;;;4.73;2.67;;;;;;;21.87;100.00;101100.19;2109356;28;20684;-65
2023/06/28 03:01:57;;;;;;;5.83;2.40;;;;;;;21.78;100.00;101102.38;2097391;28;20191;-64
2023/06/28 03:02:58;;;;;;;5.30;2.40;;;;;;;21.90;100.00;101104.06;2097721;28;20187;-65
2023/06/28 03:03:58;;;;;;;3.97;2.10;;;;;;;21.93;100.00;101106.63;2105074;28;20271;-64
2023/06/28 03:04:59;;;;;;;4.60;1.97;;;;;;;21.87;100.00;101105.81;2113028;28;20666;-65
2023/06/28 03:06:00;;;;;;;3.40;2.07;;;;;;;21.84;100.00;101114.47;2098108;28;20241;-65
2023/06/28 03:07:01;;;;;;;3.10;1.90;;;;;;;21.76;100.00;101102.09;2097348;28;20749;-65
2023/06/28 03:08:02;;;;;;;4.37;2.17;;;;;;;21.73;100.00;101101.06;2097686;28;20887;-64
2023/06/28 03:09:02;;;;;;;12.37;2.57;;;;;;;21.53;100.00;101077.72;2106928;28;20194;-64
2023/06/28 03:10:03;;;;;;;3.60;2.10;;;;;;;21.61;100.00;101087.31;2107078;28;20516;-64
2023/06/28 03:11:04;;;;;;;3.80;2.00;;;;;;;21.73;100.00;101105.91;2097778;28;20179;-65
2023/06/28 03:12:04;;;;;;;5.67;2.07;;;;;;;21.73;100.00;101101.06;2098459;28;20179;-64
2023/06/28 03:13:05;;;;;;;5.87;2.10;;;;;;;21.73;100.00;101103.09;2114711;28;20189;-65
2023/06/28 03:14:05;;;;;;;2.77;1.87;;;;;;;21.64;100.00;101094.78;2097856;28;20199;-64
2023/06/28 03:15:06;;;;;;;5.17;2.27;;;;;;;21.62;100.00;101100.91;2104434;28;20274;-64
2023/06/28 03:16:08;;;;;;;4.73;1.87;;;;;;;21.61;100.00;101099.38;2106030;28;20197;-65
2023/06/28 03:17:08;;;;;;;3.73;2.20;;;;;;;21.28;100.00;101039.03;2104829;28;20425;-64
2023/06/28 03:18:09;;;;;;;4.83;2.57;;;;;;;21.06;100.00;101011.38;2108595;28;20512;-65
2023/06/28 03:19:11;;;;;;;4.33;2.10;;;;;;;21.67;100.00;101105.06;2110823;28;20185;-65
2023/06/28 03:20:11;;;;;;;4.10;2.40;;;;;;;21.58;100.00;101088.28;2097096;28;20203;-64
2023/06/28 03:21:12;;;;;;;4.90;2.37;;;;;;;21.68;100.00;101101.78;2097695;28;20427;-64
2023/06/28 03:22:14;;;;;;;4.43;2.20;;;;;;;21.30;100.00;101047.75;2097304;28;20187;-64
2023/06/28 03:23:14;;;;;;;5.10;2.20;;;;;;;20.64;100.00;100948.34;2103710;28;20660;-64
2023/06/28 03:24:14;;;;;;;4.63;2.30;;;;;;;21.65;100.00;101113.25;2105671;28;20870;-64
2023/06/28 03:25:15;;;;;;;4.47;2.07;;;;;;;21.70;100.00;101115.38;2101022;28;20571;-65
2023/06/28 03:26:16;;;;;;;4.80;2.60;;;;;;;21.35;100.00;101063.97;2100378;28;20274;-65
2023/06/28 03:27:16;;;;;;;3.63;2.07;;;;;;;21.55;100.00;101114.69;2106855;28;20568;-64
2023/06/28 03:28:17;;;;;;;3.70;2.10;;;;;;;21.57;100.00;101118.56;2112642;28;20661;-65
2023/06/28 03:29:18;;;;;;;3.87;2.10;;;;;;;21.60;100.00;101114.72;2097698;28;20195;-65
2023/06/28 03:30:18;;;;;;;6.73;2.50;;;;;;;21.19;100.00;101042.00;2097507;28;20200;-65
2023/06/28 03:31:18;;;;;;;5.43;2.17;;;;;;;21.63;100.00;101113.75;2097438;28;20245;-65
2023/06/28 03:32:19;;;;;;;5.70;2.63;;;;;;;21.65;100.00;101113.25;2097246;28;20567;-64
2023/06/28 03:33:19;;;;;;;6.20;2.70;;;;;;;21.65;100.00;101118.91;2097074;28;20267;-64
2023/06/28 03:34:20;;;;;;;6.07;2.40;;;;;;;21.72;100.00;101115.66;2100045;28;22137;-65
2023/06/28 03:35:20;;;;;;;4.17;2.33;;;;;;;21.72;100.00;101121.28;2106750;28;20220;-65
2023/06/28 03:36:21;;;;;;;4.27;2.40;;;;;;;21.77;100.00;101112.13;2105722;28;20183;-63
2023/06/28 03:37:22;;;;;;;5.03;2.37;;;;;;;21.76;100.00;101110.56;2097349;28;20182;-63
2023/06/28 03:38:22;;;;;;;4.00;2.23;;;;;;;21.80;100.00;101111.13;2112207;28;20974;-64
2023/06/28 03:39:23;;;;;;;5.30;2.37;;;;;;;21.73;100.00;101103.88;2107788;28;20256;-64
2023/06/28 03:40:23;;;;;;;4.50;2.30;;;;;;;21.70;100.00;101107.69;2110859;28;20190;-65
2023/06/28 03:41:27;;;;;;;3.47;1.93;;;;;;;21.66;100.00;101106.34;2106102;28;20742;-65
2023/06/28 03:42:28;;;;;;;5.87;2.40;;;;;;;21.59;100.00;101112.41;2102973;28;20230;-64
2023/06/28 03:43:28;;;;;;;4.83;2.23;;;;;;;21.56;100.00;101111.38;2109732;28;20967;-64
2023/06/28 03:44:28;;;;;;;7.53;2.63;;;;;;;21.56;100.00;101100.09;2098597;28;20168;-64
2023/06/28 03:45:29;;;;;;;3.67;2.07;;;;;;;21.59;100.00;101106.78;2114331;28;20277;-64
2023/06/28 03:46:29;;;;;;;5.47;2.37;;;;;;;21.59;100.00;101104.72;2106185;28;20182;-64
2023/06/28 03:47:29;;;;;;;4.03;2.50;;;;;;;21.62;100.00;101106.56;2105734;28;20218;-64
2023/06/28 03:48:30;;;;;;;5.03;2.50;;;;;;;21.65;100.00;101104.78;2105863;28;20190;-64
2023/06/28 03:49:30;;;;;;;6.33;2.40;;;;;;;21.63;100.00;101098.84;2114542;28;20586;-64
2023/06/28 03:50:31;;;;;;;6.20;2.37;;;;;;;21.64;100.00;101101.19;2106039;28;20604;-65
2023/06/28 03:51:31;;;;;;;6.30;2.37;;;;;;;21.61;100.00;101107.06;2112055;28;20285;-65
2023/06/28 03:52:32;;;;;;;4.50;2.17;;;;;;;21.19;100.00;101045.56;2108289;28;20187;-65
2023/06/28 03:53:32;;;;;;;4.13;2.60;;;;;;;21.56;100.00;101102.91;2108861;28;20207;-65
2023/06/28 03:54:32;;;;;;;8.50;2.70;;;;;;;21.59;100.00;101106.78;2107974;28;20543;-64
2023/06/28 03:55:33;;;;;;;5.47;2.60;;;;;;;21.47;100.00;101093.81;2097266;28;20603;-64
2023/06/28 03:56:33;;;;;;;6.23;2.83;;;;;;;21.55;100.00;101097.75;2097225;28;20175;-65
2023/06/28 03:57:33;;;;;;;8.10;2.50;;;;;;;21.56;100.00;101097.28;2097648;28;20258;-65
2023/06/28 03:58:34;;;;;;;3.90;2.17;;;;;;;21.62;100.00;101100.91;2105337;28;20570;-64
2023/06/28 03:59:34;;;;;;;6.50;2.43;;;;;;;21.59;100.00;101109.59;2099028;28;20198;-64
2023/06/28 04:00:35;;;;;;;4.23;2.60;;;;;;;21.39;100.00;101085.00;2108279;28;20671;-64
2023/06/28 04:01:35;;;;;;;5.70;2.80;;;;;;;21.10;100.00;101048.56;2109258;28;20274;-64
2023/06/28 04:02:35;;;;;;;5.97;2.70;;;;;;;21.47;100.00;101096.63;2102453;28;20186;-64
2023/06/28 04:03:36;;;;;;;5.07;2.70;;;;;;;21.49;100.00;101102.56;2097192;28;20295;-64
2023/06/28 04:04:36;;;;;;;4.50;2.50;;;;;;;21.54;100.00;101105.44;2097554;28;20164;-64
2023/06/28 04:05:37;;;;;;;6.10;2.73;;;;;;;21.60;100.00;101106.25;2097337;28;20199;-64
2023/06/28 04:06:37;;;;;;;5.70;2.90;;;;;;;21.50;100.00;101095.66;2105260;28;20191;-65
2023/06/28 04:07:37;;;;;;;6.63;2.47;;;;;;;20.97;100.00;101022.78;2105892;28;20190;-64
2023/06/28 04:08:38;;;;;;;4.07;2.47;;;;;;;21.44;100.00;101106.09;2099580;28;20195;-65
2023/06/28 04:09:38;;;;;;;7.30;2.40;;;;;;;21.48;100.00;101103.81;2097155;28;20661;-64
2023/06/28 04:10:39;;;;;;;4.43;2.30;;;;;;;21.49;100.00;101102.56;2103634;28;20222;-64
2023/06/28 04:11:39;;;;;;;3.13;2.30;;;;;;;21.47;100.00;101100.25;2109671;28;20716;-64
2023/06/28 04:12:39;;;;;;;4.93;2.70;;;;;;;21.23;100.00;101056.66;2098702;28;20684;-63
2023/06/28 04:13:40;;;;;;;6.17;2.63;;;;;;;21.50;100.00;101102.06;2114216;28;20679;-65
2023/06/28 04:14:40;;;;;;;4.40;2.90;;;;;;;21.45;100.00;101107.63;2105428;28;20189;-64
2023/06/28 04:15:41;;;;;;;4.37;2.53;;;;;;;21.47;100.00;101110.72;2112401;28;20212;-65
2023/06/28 04:16:41;;;;;;;5.13;2.53;;;;;;;21.48;100.00;101113.06;2104210;28;20191;-65
2023/06/28 04:17:41;;;;;;;5.43;2.40;;;;;;;21.04;100.00;101047.69;2098706;28;20573;-64
2023/06/28 04:18:42;;;;;;;7.07;2.30;;;;;;;21.41;100.00;101099.41;2103757;28;20209;-65
2023/06/28 04:19:43;;;;;;;4.67;2.70;;;;;;;21.17;100.00;101069.88;2114223;28;20178;-64
2023/06/28 04:20:43;;;;;;;3.27;2.27;;;;;;;21.07;100.00;101058.00;2106598;28;20210;-64
2023/06/28 04:21:44;;;;;;;7.13;2.50;;;;;;;21.43;100.00;101104.53;2099072;28;20183;-64
2023/06/28 04:22:45;;;;;;;3.90;2.30;;;;;;;21.46;100.00;101107.16;2098433;28;20175;-64
2023/06/28 04:23:45;;;;;;;5.27;2.53;;;;;;;21.43;100.00;101116.59;2110765;28;20487;-64
2023/06/28 04:24:46;;;;;;;4.27;2.50;;;;;;;21.45;100.00;101122.50;2104983;28;20703;-65
2023/06/28 04:25:47;;;;;;;3.77;2.40;;;;;;;21.42;100.00;101111.44;2098681;28;20190;-64
2023/06/28 04:26:47;;;;;;;4.33;2.30;;;;;;;21.42;100.00;101109.41;2102067;28;20183;-64
2023/06/28 04:27:47;;;;;;;4.27;2.30;;;;;;;21.01;100.00;101050.72;2107096;28;20175;-65
2023/06/28 04:28:48;;;;;;;4.80;2.60;;;;;;;21.39;100.00;101112.44;2106605;28;20259;-65
2023/06/28 04:29:48;;;;;;;4.47;2.33;;;;;;;21.51;100.00;101116.94;2098609;28;20180;-64
2023/06/28 04:30:49;;;;;;;5.87;2.13;;;;;;;21.58;100.00;101113.66;2098297;28;20263;-65
2023/06/28 04:31:49;;;;;;;3.50;2.80;;;;;;;21.35;100.00;101090.09;2109544;28;20585;-64
2023/06/28 04:32:49;;;;;;;6.33;2.57;;;;;;;21.57;100.00;101117.75;2108740;28;20266;-65
2023/06/28 04:33:51;;;;;;;3.83;2.50;;;;;;;21.59;100.00;101103.97;2105239;28;20301;-64
2023/06/28 04:34:53;;;;;;;3.77;2.50;;;;;;;21.56;100.00;101113.41;2104025;28;20254;-64
2023/06/28 04:35:56;;;;;;;6.13;2.80;;;;;;;21.61;100.00;101116.28;2097918;28;20812;-64
2023/06/28 04:36:57;;;;;;;4.07;2.30;;;;;;;21.61;100.00;101116.28;2097203;28;20417;-65
2023/06/28 04:37:57;;;;;;;6.73;2.97;;;;;;;21.56;100.00;101108.53;2105490;28;20436;-65
2023/06/28 04:38:57;;;;;;;4.73;3.10;;;;;;;21.56;100.00;101108.53;2098254;28;20195;-65